createdAt,value
2023-01-29T00:00:22.434Z,33.05
2023-01-29T00:02:49.357Z,27.08
2023-01-29T00:05:27.562Z,27.55
2023-01-29T00:07:56.396Z,27.88
2023-01-29T00:10:24.997Z,29.52
2023-01-29T00:12:51.971Z,29.02
2023-01-29T00:15:19.055Z,29.15
2023-01-29T00:17:45.820Z,32.30
2023-01-29T00:20:13.065Z,25.77
2023-01-29T00:22:39.869Z,29.25
2023-01-29T00:25:07.351Z,27.73
2023-01-29T00:27:34.253Z,28.15
2023-01-29T00:30:09.286Z,30.02
2023-01-29T00:32:36.249Z,30.65
2023-01-29T00:35:03.528Z,32.53
2023-01-29T00:37:30.660Z,27.65
2023-01-29T00:39:57.818Z,31.63
2023-01-29T00:42:43.948Z,31.45
2023-01-29T00:45:11.981Z,32.53
2023-01-29T00:47:38.851Z,32.10
2023-01-29T00:50:08.493Z,31.55
2023-01-29T00:52:36.738Z,29.38
2023-01-29T00:55:05.862Z,31.98
2023-01-29T00:57:35.069Z,33.17
2023-01-29T01:00:03.607Z,29.45
2023-01-29T01:02:49.146Z,30.42
2023-01-29T01:05:20.231Z,29.58
2023-01-29T01:07:49.826Z,30.75
2023-01-29T01:10:22.961Z,36.05
2023-01-29T01:12:53.604Z,30.02
2023-01-29T01:15:22.255Z,27.40
2023-01-29T01:17:55.808Z,33.20
2023-01-29T01:20:24.510Z,30.60
2023-01-29T01:22:51.738Z,29.95
2023-01-29T01:25:18.797Z,31.98
2023-01-29T01:27:45.658Z,28.40
2023-01-29T01:30:15.804Z,29.88
2023-01-29T01:32:43.164Z,32.40
2023-01-29T01:35:11.509Z,30.40
2023-01-29T01:37:38.722Z,31.42
2023-01-29T01:40:12.760Z,31.55
2023-01-29T01:42:40.249Z,33.15
2023-01-29T01:45:18.723Z,29.83
2023-01-29T01:47:49.139Z,29.85
2023-01-29T01:50:22.051Z,29.13
2023-01-29T01:52:55.222Z,30.42
2023-01-29T01:55:26.296Z,31.30
2023-01-29T01:58:03.016Z,29.17
2023-01-29T02:00:29.849Z,28.35
2023-01-29T02:03:14.961Z,28.80
2023-01-29T02:06:00.796Z,30.33
2023-01-29T02:08:57.818Z,32.25
2023-01-29T02:11:25.203Z,30.77
2023-01-29T02:13:53.603Z,32.10
2023-01-29T02:16:25.813Z,32.50
2023-01-29T02:18:53.260Z,32.33
2023-01-29T02:21:41.820Z,34.15
2023-01-29T02:25:09.998Z,30.85
2023-01-29T02:28:06.578Z,38.30
2023-01-29T02:30:51.900Z,33.42
2023-01-29T02:33:43.631Z,37.25
2023-01-29T02:36:25.780Z,36.50
2023-01-29T02:39:12.259Z,32.57
2023-01-29T02:42:11.581Z,35.30
2023-01-29T02:44:43.863Z,35.70
2023-01-29T02:47:48.162Z,36.25
2023-01-29T02:50:26.256Z,38.45
2023-01-29T02:53:00.266Z,34.50
2023-01-29T02:55:42.410Z,36.83
2023-01-29T02:58:20.502Z,36.65
2023-01-29T03:00:49.185Z,33.88
2023-01-29T03:03:25.197Z,32.60
2023-01-29T03:06:20.673Z,32.60
2023-01-29T03:08:57.948Z,35.15
2023-01-29T03:11:30.017Z,35.30
2023-01-29T03:14:03.154Z,33.83
2023-01-29T03:16:42.565Z,36.53
2023-01-29T03:19:16.294Z,33.90
2023-01-29T03:22:00.038Z,35.08
2023-01-29T03:25:12.356Z,32.50
2023-01-29T03:28:15.663Z,35.55
2023-01-29T03:31:18.537Z,35.13
2023-01-29T03:33:54.881Z,35.30
2023-01-29T03:36:39.707Z,33.70
2023-01-29T03:39:09.049Z,37.77
2023-01-29T03:41:53.257Z,31.85
2023-01-29T03:44:37.174Z,35.60
2023-01-29T03:47:13.813Z,35.67
2023-01-29T03:49:53.807Z,37.05
2023-01-29T03:52:25.220Z,38.17
2023-01-29T03:55:10.761Z,34.58
2023-01-29T03:57:45.577Z,38.30
2023-01-29T04:00:27.843Z,33.80
2023-01-29T04:03:23.119Z,33.25
2023-01-29T04:06:14.747Z,38.47
2023-01-29T04:09:03.213Z,37.20
2023-01-29T04:11:34.032Z,35.38
2023-01-29T04:14:01.301Z,34.60
2023-01-29T04:16:36.708Z,35.42
2023-01-29T04:19:20.563Z,35.05
2023-01-29T04:21:50.549Z,35.50
2023-01-29T04:24:17.705Z,35.15
2023-01-29T04:27:03.542Z,35.75
2023-01-29T04:29:51.998Z,33.97
2023-01-29T04:32:28.255Z,38.20
2023-01-29T04:35:17.788Z,38.83
2023-01-29T04:37:56.939Z,34.85
2023-01-29T04:40:33.654Z,37.10
2023-01-29T04:43:08.048Z,33.38
2023-01-29T04:45:50.152Z,34.13
2023-01-29T04:48:25.648Z,34.83
2023-01-29T04:51:16.649Z,34.83
2023-01-29T04:53:55.779Z,35.10
2023-01-29T04:56:47.929Z,31.85
2023-01-29T04:59:20.897Z,33.45
2023-01-29T05:01:48.916Z,31.55
2023-01-29T05:04:19.655Z,33.53
2023-01-29T05:06:47.335Z,33.73
2023-01-29T05:09:16.406Z,32.08
2023-01-29T05:11:47.722Z,34.70
2023-01-29T05:14:17.402Z,32.17
2023-01-29T05:16:51.241Z,34.60
2023-01-29T05:19:18.092Z,34.15
2023-01-29T05:21:47.889Z,32.97
2023-01-29T05:24:16.551Z,29.95
2023-01-29T05:27:03.740Z,33.95
2023-01-29T05:29:30.545Z,35.65
2023-01-29T05:31:57.406Z,35.88
2023-01-29T05:34:24.204Z,33.47
2023-01-29T05:36:51.121Z,33.90
2023-01-29T05:39:18.070Z,33.78
2023-01-29T05:41:44.797Z,33.50
2023-01-29T05:44:11.652Z,34.33
2023-01-29T05:46:38.926Z,35.50
2023-01-29T05:49:06.371Z,34.63
2023-01-29T05:51:33.118Z,29.63
2023-01-29T05:53:59.879Z,34.33
2023-01-29T05:56:26.670Z,33.08
2023-01-29T05:58:53.428Z,34.80
2023-01-29T06:01:23.679Z,34.72
2023-01-29T06:03:50.602Z,29.77
2023-01-29T06:06:17.979Z,32.55
2023-01-29T06:08:44.748Z,31.63
2023-01-29T06:11:13.820Z,34.88
2023-01-29T06:13:40.995Z,30.40
2023-01-29T06:16:08.912Z,33.33
2023-01-29T06:18:36.527Z,32.63
2023-01-29T06:21:05.295Z,31.05
2023-01-29T06:23:32.403Z,29.13
2023-01-29T06:26:04.142Z,32.37
2023-01-29T06:28:31.597Z,32.97
2023-01-29T06:31:12.012Z,34.53
2023-01-29T06:33:47.152Z,33.50
2023-01-29T06:36:13.897Z,32.10
2023-01-29T06:38:40.836Z,30.63
2023-01-29T06:41:12.475Z,31.10
2023-01-29T06:43:39.770Z,33.65
2023-01-29T06:46:08.287Z,30.70
2023-01-29T06:48:35.632Z,32.78
2023-01-29T06:51:04.300Z,30.67
2023-01-29T06:53:31.773Z,28.73
2023-01-29T06:55:58.596Z,28.23
2023-01-29T06:58:25.823Z,28.30
2023-01-29T07:00:52.738Z,30.27
2023-01-29T07:03:19.518Z,30.15
2023-01-29T07:05:52.993Z,29.40
2023-01-29T07:08:22.600Z,32.63
2023-01-29T07:10:50.451Z,26.95
2023-01-29T07:13:17.358Z,30.45
2023-01-29T07:15:44.649Z,28.83
2023-01-29T07:18:14.277Z,31.67
2023-01-29T07:20:41.980Z,31.30
2023-01-29T07:23:15.347Z,28.85
2023-01-29T07:25:42.150Z,28.65
2023-01-29T07:28:09.121Z,27.65
2023-01-29T07:30:36.408Z,27.75
2023-01-29T07:33:07.416Z,28.25
2023-01-29T07:35:39.825Z,29.25
2023-01-29T07:38:07.677Z,27.95
2023-01-29T07:40:34.450Z,29.25
2023-01-29T07:43:05.327Z,28.30
2023-01-29T07:45:38.366Z,30.70
2023-01-29T07:48:06.313Z,28.13
2023-01-29T07:50:34.805Z,31.52
2023-01-29T07:53:01.988Z,28.52
2023-01-29T07:55:28.766Z,29.42
2023-01-29T07:58:01.074Z,31.20
2023-01-29T08:00:28.989Z,29.33
2023-01-29T08:03:05.543Z,28.52
2023-01-29T08:05:32.777Z,27.95
2023-01-29T08:08:06.547Z,30.92
2023-01-29T08:10:34.908Z,29.55
2023-01-29T08:13:03.169Z,29.70
2023-01-29T08:15:30.338Z,31.80
2023-01-29T08:20:44.736Z,30.48
2023-01-29T08:23:15.076Z,30.07
2023-01-29T08:25:42.137Z,28.67
2023-01-29T08:28:09.795Z,32.67
2023-01-29T08:30:37.875Z,31.35
2023-01-29T08:33:05.111Z,27.63
2023-01-29T08:35:32.040Z,29.23
2023-01-29T08:38:00.744Z,29.75
2023-01-29T08:40:36.738Z,26.27
2023-01-29T08:43:09.205Z,25.05
2023-01-29T08:45:39.853Z,29.23
2023-01-29T08:48:07.083Z,28.25
2023-01-29T08:50:35.073Z,28.80
2023-01-29T08:53:04.403Z,29.80
2023-01-29T08:55:31.129Z,30.05
2023-01-29T08:57:57.864Z,30.23
2023-01-29T09:00:24.938Z,30.63
2023-01-29T09:02:51.674Z,27.67
2023-01-29T09:05:18.964Z,32.47
2023-01-29T09:07:46.001Z,28.97
2023-01-29T09:10:13.379Z,29.45
2023-01-29T09:12:40.349Z,28.70
2023-01-29T09:15:07.736Z,27.42
2023-01-29T09:17:34.682Z,29.47
2023-01-29T09:20:01.422Z,28.60
2023-01-29T09:22:30.015Z,27.58
2023-01-29T09:24:56.788Z,28.83
2023-01-29T09:27:23.688Z,27.80
2023-01-29T09:29:50.512Z,32.33
2023-01-29T09:32:37.622Z,29.25
2023-01-29T09:35:04.633Z,28.17
2023-01-29T09:37:32.526Z,29.98
2023-01-29T09:39:59.378Z,26.00
2023-01-29T09:42:39.199Z,27.35
2023-01-29T09:45:09.743Z,26.08
2023-01-29T09:47:37.288Z,27.90
2023-01-29T09:50:13.625Z,28.40
2023-01-29T09:52:54.247Z,26.57
2023-01-29T09:55:32.492Z,26.30
2023-01-29T09:58:18.466Z,28.33
2023-01-29T10:01:08.838Z,27.98
2023-01-29T10:03:51.136Z,27.17
2023-01-29T10:06:48.209Z,27.85
2023-01-29T10:09:27.058Z,28.85
2023-01-29T10:12:32.927Z,27.57
2023-01-29T10:15:18.078Z,26.52
2023-01-29T10:17:53.104Z,28.50
2023-01-29T10:20:52.872Z,28.60
2023-01-29T10:23:30.249Z,32.47
2023-01-29T10:25:57.124Z,28.50
2023-01-29T10:28:45.885Z,28.55
2023-01-29T10:31:33.223Z,31.52
2023-01-29T10:34:07.294Z,29.92
2023-01-29T10:36:47.936Z,30.90
2023-01-29T10:39:18.870Z,29.87
2023-01-29T10:41:56.239Z,32.42
2023-01-29T10:45:07.432Z,28.80
2023-01-29T10:48:04.374Z,30.58
2023-01-29T10:50:47.156Z,33.20
2023-01-29T10:53:33.381Z,30.27
2023-01-29T10:56:32.718Z,34.95
2023-01-29T10:59:05.391Z,40.83
2023-01-29T11:01:32.232Z,35.70
2023-01-29T11:04:03.164Z,39.15
2023-01-29T11:06:32.736Z,37.03
2023-01-29T11:09:38.636Z,35.28
2023-01-29T11:12:05.601Z,37.03
2023-01-29T11:15:16.084Z,34.67
2023-01-29T11:18:05.761Z,34.72
2023-01-29T11:20:33.948Z,36.53
2023-01-29T11:23:00.765Z,35.60
2023-01-29T11:25:29.813Z,34.10
2023-01-29T11:28:00.561Z,37.53
2023-01-29T11:30:39.182Z,34.03
2023-01-29T11:33:23.787Z,33.03
2023-01-29T11:35:52.630Z,31.48
2023-01-29T11:38:22.714Z,31.67
2023-01-29T11:40:49.981Z,31.73
2023-01-29T11:43:28.111Z,32.08
2023-01-29T11:45:58.512Z,32.40
2023-01-29T11:48:51.443Z,32.90
2023-01-29T11:51:28.299Z,34.88
2023-01-29T11:54:01.949Z,35.08
2023-01-29T11:56:39.809Z,33.60
2023-01-29T11:59:15.784Z,37.55
2023-01-29T12:01:42.761Z,35.72
2023-01-29T12:04:27.849Z,37.45
2023-01-29T12:06:54.948Z,34.17
2023-01-29T12:09:27.135Z,36.58
2023-01-29T12:11:53.987Z,30.88
2023-01-29T12:14:34.019Z,35.15
2023-01-29T12:17:16.826Z,38.70
2023-01-29T12:19:50.147Z,36.78
2023-01-29T12:22:28.902Z,36.45
2023-01-29T12:25:20.258Z,36.60
2023-01-29T12:27:59.417Z,33.47
2023-01-29T12:30:33.837Z,35.00
2023-01-29T12:33:29.271Z,37.20
2023-01-29T12:36:31.491Z,39.53
2023-01-29T12:38:59.298Z,35.25
2023-01-29T12:41:37.999Z,37.88
2023-01-29T12:44:37.455Z,38.13
2023-01-29T12:47:07.369Z,41.33
2023-01-29T12:49:37.234Z,35.00
2023-01-29T12:52:07.020Z,38.65
2023-01-29T12:54:47.876Z,36.72
2023-01-29T12:57:39.740Z,41.05
2023-01-29T13:00:13.436Z,37.35
2023-01-29T13:03:20.345Z,37.35
2023-01-29T13:06:21.653Z,38.50
2023-01-29T13:08:58.521Z,36.13
2023-01-29T13:11:59.616Z,36.20
2023-01-29T13:14:40.727Z,36.40
2023-01-29T13:17:20.007Z,37.58
2023-01-29T13:19:51.230Z,40.60
2023-01-29T13:22:31.922Z,35.80
2023-01-29T13:25:05.206Z,36.75
2023-01-29T13:27:35.237Z,33.10
2023-01-29T13:30:02.354Z,36.78
2023-01-29T13:32:31.522Z,35.15
2023-01-29T13:35:12.109Z,30.15
2023-01-29T13:37:57.095Z,34.43
2023-01-29T13:40:27.592Z,34.60
2023-01-29T13:42:55.539Z,30.80
2023-01-29T13:45:49.246Z,34.40
2023-01-29T13:48:29.521Z,31.20
2023-01-29T13:51:00.555Z,34.25
2023-01-29T13:53:33.599Z,32.05
2023-01-29T13:56:34.131Z,33.60
2023-01-29T13:59:06.407Z,31.55
2023-01-29T14:01:48.100Z,32.95
2023-01-29T14:04:28.234Z,30.85
2023-01-29T14:06:57.045Z,33.17
2023-01-29T14:09:38.921Z,32.83
2023-01-29T14:12:25.803Z,36.78
2023-01-29T14:14:55.336Z,32.80
2023-01-29T14:17:22.856Z,32.53
2023-01-29T14:19:51.547Z,31.97
2023-01-29T14:22:22.372Z,33.35
2023-01-29T14:24:53.856Z,33.88
2023-01-29T14:27:25.337Z,32.15
2023-01-29T14:29:58.587Z,31.05
2023-01-29T14:32:26.210Z,33.22
2023-01-29T14:35:01.252Z,37.53
2023-01-29T14:37:40.692Z,32.80
2023-01-29T14:40:15.869Z,43.00
2023-01-29T14:43:01.989Z,31.88
2023-01-29T14:45:33.139Z,30.85
2023-01-29T14:48:07.064Z,35.67
2023-01-29T14:50:34.752Z,38.08
2023-01-29T14:53:40.239Z,33.30
2023-01-29T14:56:17.013Z,33.13
2023-01-29T14:58:55.325Z,31.85
2023-01-29T15:01:28.933Z,31.17
2023-01-29T15:04:05.413Z,34.03
2023-01-29T15:06:46.396Z,33.80
2023-01-29T15:09:36.672Z,33.50
2023-01-29T15:12:26.659Z,30.42
2023-01-29T15:15:18.297Z,31.42
2023-01-29T15:17:57.263Z,33.17
2023-01-29T15:20:34.738Z,34.22
2023-01-29T15:23:03.480Z,29.55
2023-01-29T15:25:37.696Z,30.70
2023-01-29T15:28:08.589Z,33.43
2023-01-29T15:30:36.281Z,32.35
2023-01-29T15:33:04.091Z,31.35
2023-01-29T15:35:39.570Z,32.00
2023-01-29T15:38:07.760Z,31.17
2023-01-29T15:40:34.970Z,33.42
2023-01-29T15:43:01.771Z,32.83
2023-01-29T15:45:33.486Z,33.53
2023-01-29T15:48:07.580Z,29.33
2023-01-29T15:50:39.226Z,34.10
2023-01-29T15:53:09.772Z,31.08
2023-01-29T15:55:36.690Z,31.98
2023-01-29T15:58:04.414Z,29.65
2023-01-29T16:00:31.473Z,31.05
2023-01-29T16:03:00.691Z,30.60
2023-01-29T16:05:33.033Z,29.75
2023-01-29T16:08:00.745Z,29.75
2023-01-29T16:10:31.056Z,30.43
2023-01-29T16:12:58.934Z,34.45
2023-01-29T16:15:39.252Z,33.40
2023-01-29T16:18:22.265Z,34.00
2023-01-29T16:20:54.484Z,35.80
2023-01-29T16:23:28.112Z,39.30
2023-01-29T16:26:01.266Z,35.42
2023-01-29T16:28:28.354Z,36.08
2023-01-29T16:31:03.868Z,35.03
2023-01-29T16:33:37.369Z,36.22
2023-01-29T16:36:16.699Z,36.67
2023-01-29T16:38:51.309Z,33.95
2023-01-29T16:41:23.902Z,37.03
2023-01-29T16:43:52.347Z,36.75
2023-01-29T16:46:31.830Z,34.47
2023-01-29T16:48:59.045Z,37.50
2023-01-29T16:51:31.782Z,40.58
2023-01-29T16:54:13.543Z,43.20
2023-01-29T16:56:40.399Z,40.95
2023-01-29T16:59:12.968Z,39.80
2023-01-29T17:01:39.740Z,41.53
2023-01-29T17:04:17.412Z,37.72
2023-01-29T17:06:50.119Z,38.25
2023-01-29T17:09:26.280Z,35.78
2023-01-29T17:11:57.263Z,36.17
2023-01-29T17:14:26.017Z,40.50
2023-01-29T17:17:04.578Z,38.28
2023-01-29T17:19:31.585Z,42.38
2023-01-29T17:21:59.095Z,39.58
2023-01-29T17:24:26.548Z,39.53
2023-01-29T17:26:54.119Z,43.05
2023-01-29T17:29:30.524Z,41.78
2023-01-29T17:31:59.930Z,40.20
2023-01-29T17:34:26.912Z,35.50
2023-01-29T17:36:53.844Z,38.10
2023-01-29T17:39:22.820Z,39.90
2023-01-29T17:41:58.118Z,42.80
2023-01-29T17:44:28.252Z,44.03
2023-01-29T17:46:55.153Z,38.60
2023-01-29T17:49:28.584Z,42.70
2023-01-29T17:51:56.718Z,41.00
2023-01-29T17:54:24.141Z,42.00
2023-01-29T17:56:51.578Z,43.92
2023-01-29T17:59:20.750Z,43.08
2023-01-29T18:01:48.378Z,41.00
2023-01-29T18:04:15.324Z,41.90
2023-01-29T18:06:43.165Z,45.75
2023-01-29T18:09:14.858Z,43.30
2023-01-29T18:11:42.909Z,39.53
2023-01-29T18:14:14.138Z,41.88
2023-01-29T18:16:43.480Z,42.63
2023-01-29T18:19:30.995Z,40.08
2023-01-29T18:21:57.871Z,44.15
2023-01-29T18:24:26.546Z,40.90
2023-01-29T18:26:53.434Z,42.67
2023-01-29T18:29:20.320Z,41.40
2023-01-29T18:31:51.416Z,40.42
2023-01-29T18:34:18.279Z,40.13
2023-01-29T18:36:47.600Z,42.92
2023-01-29T18:39:15.358Z,41.40
2023-01-29T18:41:42.438Z,39.17
2023-01-29T18:44:10.664Z,45.38
2023-01-29T18:46:37.417Z,40.10
2023-01-29T18:49:05.198Z,42.53
2023-01-29T18:51:31.998Z,40.40
2023-01-29T18:53:58.743Z,41.33
2023-01-29T18:56:25.678Z,40.38
2023-01-29T18:58:55.818Z,43.20
2023-01-29T19:01:23.528Z,41.13
2023-01-29T19:03:50.327Z,38.10
2023-01-29T19:06:17.112Z,39.85
2023-01-29T19:08:44.033Z,44.47
2023-01-29T19:11:12.476Z,42.15
2023-01-29T19:13:40.544Z,39.65
2023-01-29T19:16:09.274Z,41.13
2023-01-29T19:18:36.953Z,41.15
2023-01-29T19:21:14.562Z,39.07
2023-01-29T19:23:43.025Z,41.80
2023-01-29T19:26:10.415Z,43.58
2023-01-29T19:28:37.272Z,39.67
2023-01-29T19:31:04.155Z,41.90
2023-01-29T19:33:30.958Z,41.38
2023-01-29T19:35:59.164Z,40.90
2023-01-29T19:38:26.560Z,42.77
2023-01-29T19:40:55.116Z,42.78
2023-01-29T19:43:22.003Z,40.03
2023-01-29T19:45:50.900Z,40.97
2023-01-29T19:48:21.656Z,41.77
2023-01-29T19:50:53.463Z,40.40
2023-01-29T19:53:20.623Z,42.83
2023-01-29T19:55:48.198Z,42.97
2023-01-29T19:58:15.223Z,44.58
2023-01-29T20:00:42.050Z,45.08
2023-01-29T20:03:08.943Z,42.75
2023-01-29T20:05:37.468Z,45.33
2023-01-29T20:08:04.360Z,48.63
2023-01-29T20:10:31.120Z,44.30
2023-01-29T20:12:58.045Z,46.47
2023-01-29T20:15:24.916Z,46.05
2023-01-29T20:17:51.674Z,43.83
2023-01-29T20:20:18.757Z,44.67
2023-01-29T20:22:46.284Z,44.80
2023-01-29T20:25:14.189Z,42.15
2023-01-29T20:27:41.242Z,42.22
2023-01-29T20:30:08.997Z,44.53
2023-01-29T20:32:35.823Z,46.50
2023-01-29T20:35:03.364Z,47.47
2023-01-29T20:37:30.103Z,49.87
2023-01-29T20:39:56.869Z,49.50
2023-01-29T20:42:23.638Z,44.35
2023-01-29T20:44:50.403Z,47.40
2023-01-29T20:47:17.186Z,46.78
2023-01-29T20:49:44.009Z,46.95
2023-01-29T20:52:11.332Z,48.47
2023-01-29T20:54:38.072Z,47.58
2023-01-29T20:57:05.017Z,50.13
2023-01-29T20:59:31.876Z,49.50
2023-01-29T21:01:58.683Z,46.13
2023-01-29T21:04:25.647Z,49.22
2023-01-29T21:06:52.466Z,50.90
2023-01-29T21:09:20.397Z,50.20
2023-01-29T21:11:47.683Z,44.42
2023-01-29T21:14:14.631Z,47.95
2023-01-29T21:16:41.528Z,43.10
2023-01-29T21:19:08.945Z,47.33
2023-01-29T21:21:35.702Z,47.60
2023-01-29T21:24:02.476Z,49.30
2023-01-29T21:26:29.314Z,47.60
2023-01-29T21:28:56.118Z,47.83
2023-01-29T21:31:23.116Z,52.97
2023-01-29T21:33:50.041Z,50.10
2023-01-29T21:36:16.919Z,49.03
2023-01-29T21:38:43.747Z,48.72
2023-01-29T21:41:10.734Z,52.67
2023-01-29T21:43:38.146Z,53.13
2023-01-29T21:46:13.460Z,45.90
2023-01-29T21:48:40.844Z,50.13
2023-01-29T21:51:08.028Z,49.87
2023-01-29T21:53:34.983Z,50.00
2023-01-29T21:56:03.862Z,50.97
2023-01-29T21:58:31.040Z,51.00
2023-01-29T22:01:36.000Z,50.30
2023-01-29T22:03:47.062Z,51.00
2023-01-29T22:06:14.517Z,54.95
2023-01-29T22:08:41.323Z,55.80
2023-01-29T22:11:08.321Z,50.25
2023-01-29T22:13:35.301Z,52.77
2023-01-29T22:16:02.151Z,51.70
2023-01-29T22:18:28.924Z,53.70
2023-01-29T22:20:56.581Z,51.38
2023-01-29T22:23:23.986Z,56.42
2023-01-29T22:25:50.785Z,53.25
2023-01-29T22:28:18.424Z,54.38
2023-01-29T22:30:45.514Z,54.67
2023-01-29T22:33:12.617Z,56.65
2023-01-29T22:35:39.494Z,58.50
2023-01-29T22:38:06.562Z,53.33
2023-01-29T22:40:33.370Z,50.50
2023-01-29T22:43:00.134Z,56.30
2023-01-29T22:45:27.310Z,53.53
2023-01-29T22:47:54.062Z,56.00
2023-01-29T22:50:21.014Z,52.47
2023-01-29T22:52:53.930Z,52.03
2023-01-29T22:55:20.989Z,56.72
2023-01-29T22:57:53.334Z,55.70
2023-01-29T23:00:20.568Z,55.70
2023-01-29T23:02:47.841Z,56.00
2023-01-29T23:05:14.759Z,53.25
2023-01-29T23:07:41.590Z,54.75
2023-01-29T23:10:10.137Z,48.78
2023-01-29T23:12:37.555Z,61.35
2023-01-29T23:15:05.144Z,50.75
2023-01-29T23:17:31.953Z,48.75
2023-01-29T23:19:58.774Z,50.60
2023-01-29T23:22:25.571Z,50.55
2023-01-29T23:24:52.804Z,45.00
2023-01-29T23:27:20.094Z,50.45
2023-01-29T23:29:48.402Z,45.70
2023-01-29T23:32:19.599Z,47.80
2023-01-29T23:34:46.593Z,48.38
2023-01-29T23:37:13.917Z,49.97
2023-01-29T23:39:40.668Z,46.60
2023-01-29T23:42:07.442Z,47.03
2023-01-29T23:44:34.191Z,47.00
2023-01-29T23:47:01.325Z,47.90
2023-01-29T23:49:28.098Z,49.17
2023-01-29T23:51:54.900Z,40.85
2023-01-29T23:54:21.658Z,44.05
2023-01-29T23:56:48.632Z,43.67
2023-01-29T23:59:16.036Z,43.22
